Time;durP1;ratioP1;P1;durP2;ratioP2;P2;SDS_P1;SDS_P2;PMS_P1;PMS_P2;Temp;Humidity;BMP_temperature;BMP_pressure;BME280_temperature;BME280_humidity;BME280_pressure;Samples;Min_cycle;Max_cycle;Signal;HPM_P1;HPM_P2
2020/12/02 00:00:41;;;;;;;13.97;12.03;;;10.00;99.90;;;;;;5090374;28;20185;-76
2020/12/02 00:03:06;;;;;;;13.23;11.13;;;10.00;99.90;;;;;;5092650;28;20812;-76
2020/12/02 00:05:33;;;;;;;11.93;10.70;;;10.00;99.90;;;;;;5092802;28;20495;-75
2020/12/02 00:08:11;;;;;;;14.63;11.53;;;10.00;99.90;;;;;;5091790;28;20214;-75
2020/12/02 00:10:38;;;;;;;13.13;11.67;;;10.00;99.90;;;;;;5074093;28;20901;-76
2020/12/02 00:13:14;;;;;;;16.70;11.90;;;10.00;99.90;;;;;;5090439;28;20407;-76
2020/12/02 00:15:40;;;;;;;14.50;11.33;;;10.00;99.90;;;;;;5089873;28;20418;-76
2020/12/02 00:18:06;;;;;;;15.83;11.53;;;10.00;99.90;;;;;;5092178;28;20403;-75
2020/12/02 00:20:32;;;;;;;17.63;13.10;;;10.00;99.90;;;;;;5091886;28;20902;-75
2020/12/02 00:22:58;;;;;;;15.07;12.83;;;10.00;99.90;;;;;;5091646;28;20199;-75
2020/12/02 00:25:24;;;;;;;15.50;12.30;;;9.80;99.90;;;;;;5091676;28;20518;-75
2020/12/02 00:27:50;;;;;;;16.30;13.40;;;9.60;99.90;;;;;;5091666;28;20955;-75
2020/12/02 00:30:17;;;;;;;18.83;13.27;;;9.40;99.90;;;;;;5085247;28;20172;-73
2020/12/02 00:32:46;;;;;;;16.17;12.60;;;9.40;99.90;;;;;;5092409;28;20428;-75
2020/12/02 00:35:17;;;;;;;16.03;13.13;;;9.40;99.90;;;;;;5092530;28;20418;-75
2020/12/02 00:37:44;;;;;;;16.93;11.80;;;9.30;99.90;;;;;;5091156;28;20387;-75
2020/12/02 00:40:12;;;;;;;17.20;12.83;;;9.30;99.90;;;;;;5092309;28;20410;-75
2020/12/02 00:42:37;;;;;;;16.47;12.87;;;9.30;99.90;;;;;;5092266;28;20901;-75
2020/12/02 00:45:06;;;;;;;16.07;13.10;;;9.20;99.90;;;;;;5091832;28;20465;-75
2020/12/02 00:47:32;;;;;;;19.50;13.33;;;9.10;99.90;;;;;;5092053;28;20188;-75
2020/12/02 00:49:58;;;;;;;16.40;12.43;;;9.10;99.90;;;;;;5091321;28;20668;-75
2020/12/02 00:52:25;;;;;;;19.30;14.47;;;9.00;99.90;;;;;;5091223;28;20410;-75
2020/12/02 00:54:51;;;;;;;17.57;13.53;;;9.10;99.90;;;;;;5069931;28;20198;-75
2020/12/02 00:57:29;;;;;;;17.40;13.27;;;9.10;99.90;;;;;;5092082;28;20835;-75
2020/12/02 00:59:57;;;;;;;19.33;14.30;;;9.30;99.90;;;;;;5090538;28;20201;-75
2020/12/02 01:02:37;;;;;;;18.67;14.70;;;9.40;99.90;;;;;;5090665;28;20499;-75
2020/12/02 01:05:09;;;;;;;16.63;13.77;;;9.50;99.90;;;;;;5087973;28;20504;-75
2020/12/02 01:07:39;;;;;;;17.83;13.47;;;9.60;99.90;;;;;;5091861;28;20403;-75
2020/12/02 01:10:05;;;;;;;19.43;14.00;;;9.60;99.90;;;;;;5091578;28;20395;-75
2020/12/02 01:12:31;;;;;;;18.27;14.80;;;9.60;99.90;;;;;;5091580;28;20406;-75
2020/12/02 01:14:57;;;;;;;16.93;14.30;;;9.70;99.90;;;;;;5089351;28;20500;-75
2020/12/02 01:17:23;;;;;;;17.27;13.93;;;9.70;99.90;;;;;;5072327;28;20509;-75
2020/12/02 01:19:49;;;;;;;19.70;14.43;;;9.80;99.90;;;;;;5091120;28;20293;-75
2020/12/02 01:22:22;;;;;;;17.97;14.17;;;9.80;99.90;;;;;;5090872;28;20233;-75
2020/12/02 01:25:11;;;;;;;19.20;15.10;;;9.90;99.90;;;;;;5089892;28;20271;-75
2020/12/02 01:27:58;;;;;;;17.50;15.03;;;9.90;99.90;;;;;;5088940;28;20522;-75
2020/12/02 01:30:24;;;;;;;18.57;14.97;;;10.00;99.90;;;;;;5087051;28;20436;-75
2020/12/02 01:32:51;;;;;;;18.30;14.67;;;10.00;99.90;;;;;;5089741;28;20462;-75
2020/12/02 01:35:22;;;;;;;17.77;14.47;;;10.10;99.90;;;;;;5090390;28;20459;-75
2020/12/02 01:37:54;;;;;;;17.87;13.80;;;10.10;99.90;;;;;;5089479;28;20388;-75
2020/12/02 01:40:24;;;;;;;18.17;15.00;;;9.90;99.90;;;;;;5090349;28;20403;-75
2020/12/02 01:42:51;;;;;;;20.63;14.87;;;9.60;99.90;;;;;;5089457;28;20461;-76
2020/12/02 01:45:25;;;;;;;19.10;14.40;;;9.40;99.90;;;;;;5072174;28;21053;-75
2020/12/02 01:48:20;;;;;;;21.57;15.97;;;9.30;99.90;;;;;;5090463;28;20395;-75
2020/12/02 01:51:06;;;;;;;22.87;15.57;;;9.20;99.90;;;;;;5092466;28;20729;-75
2020/12/02 01:53:38;;;;;;;19.03;15.03;;;8.90;99.90;;;;;;5092836;28;20812;-75
2020/12/02 01:56:15;;;;;;;19.07;14.63;;;8.80;99.90;;;;;;5090711;28;20414;-75
2020/12/02 01:59:02;;;;;;;21.27;15.60;;;8.80;99.90;;;;;;5090909;28;20392;-75
2020/12/02 02:01:38;;;;;;;18.97;15.03;;;8.80;99.90;;;;;;5092187;28;20866;-75
2020/12/02 02:04:06;;;;;;;21.30;15.13;;;8.70;99.90;;;;;;5091476;28;20451;-75
2020/12/02 02:07:02;;;;;;;22.27;16.27;;;8.70;99.90;;;;;;5077219;28;20447;-75
2020/12/02 02:09:28;;;;;;;21.00;16.30;;;8.70;99.90;;;;;;5094959;28;20395;-75
2020/12/02 02:12:27;;;;;;;21.83;16.50;;;8.60;99.90;;;;;;5094077;28;20505;-75
2020/12/02 02:15:23;;;;;;;24.90;15.50;;;8.60;99.90;;;;;;5094055;28;20398;-75
2020/12/02 02:17:56;;;;;;;22.50;16.30;;;8.50;99.90;;;;;;5094084;28;20803;-75
2020/12/02 02:20:27;;;;;;;24.00;16.07;;;8.60;99.90;;;;;;5076535;28;20398;-75
2020/12/02 02:22:53;;;;;;;24.47;16.53;;;8.60;99.90;;;;;;5093881;28;20414;-75
2020/12/02 02:25:19;;;;;;;21.60;15.63;;;8.70;99.90;;;;;;5076115;28;20859;-75
2020/12/02 02:27:46;;;;;;;22.13;16.17;;;8.70;99.90;;;;;;5093976;28;20728;-76
2020/12/02 02:30:13;;;;;;;22.80;16.70;;;8.70;99.90;;;;;;5094298;28;20471;-75
2020/12/02 02:32:40;;;;;;;20.70;15.00;;;8.80;99.90;;;;;;5094489;28;20441;-75
2020/12/02 02:35:05;;;;;;;20.20;15.13;;;8.70;99.90;;;;;;5075204;28;20422;-75
2020/12/02 02:37:31;;;;;;;21.07;15.53;;;8.60;99.90;;;;;;5094315;28;20725;-75
2020/12/02 02:39:59;;;;;;;20.20;13.90;;;8.60;99.90;;;;;;5093340;28;20183;-75
2020/12/02 02:42:33;;;;;;;24.53;16.43;;;8.70;99.90;;;;;;5076105;28;20403;-75
2020/12/02 02:45:01;;;;;;;21.17;15.10;;;8.70;99.90;;;;;;5093388;28;20535;-75
2020/12/02 02:47:27;;;;;;;23.27;14.50;;;8.80;99.90;;;;;;5093970;28;20978;-75
2020/12/02 02:49:53;;;;;;;21.17;14.33;;;8.90;99.90;;;;;;5092931;28;20466;-75
2020/12/02 02:52:19;;;;;;;20.27;14.97;;;9.00;99.90;;;;;;5094360;28;20417;-75
2020/12/02 02:54:45;;;;;;;18.70;13.20;;;9.10;99.90;;;;;;5093767;28;20603;-76
2020/12/02 02:57:11;;;;;;;19.90;13.20;;;9.20;99.90;;;;;;5093832;28;20418;-75
2020/12/02 02:59:37;;;;;;;19.83;15.30;;;9.30;99.90;;;;;;5075444;28;20513;-75
2020/12/02 03:02:04;;;;;;;15.60;12.10;;;9.10;99.90;;;;;;5093035;28;20187;-75
2020/12/02 03:04:30;;;;;;;18.30;12.77;;;9.00;99.90;;;;;;5075675;28;20176;-75
2020/12/02 03:06:56;;;;;;;14.87;11.20;;;9.00;99.90;;;;;;5092954;28;20487;-75
2020/12/02 03:09:22;;;;;;;14.70;10.67;;;9.10;99.90;;;;;;5093989;28;20169;-75
2020/12/02 03:11:53;;;;;;;16.77;10.47;;;9.20;99.90;;;;;;5092865;28;20867;-76
2020/12/02 03:14:19;;;;;;;14.07;11.10;;;9.20;99.90;;;;;;5093807;28;20395;-75
2020/12/02 03:16:53;;;;;;;13.30;9.20;;;9.30;99.90;;;;;;5075358;28;20463;-75
2020/12/02 03:19:30;;;;;;;12.60;9.67;;;9.40;99.90;;;;;;5093890;28;20171;-75
2020/12/02 03:22:03;;;;;;;10.23;9.17;;;9.50;99.90;;;;;;5074648;28;20398;-75
2020/12/02 03:24:29;;;;;;;12.90;9.97;;;9.50;99.90;;;;;;5093299;28;20768;-75
2020/12/02 03:26:56;;;;;;;13.60;10.20;;;9.50;99.90;;;;;;5092676;28;20467;-75
2020/12/02 03:29:22;;;;;;;14.50;10.87;;;9.50;99.90;;;;;;5091283;28;20523;-75
2020/12/02 03:31:48;;;;;;;12.63;10.10;;;9.50;99.90;;;;;;5092770;28;20457;-76
2020/12/02 03:34:17;;;;;;;14.83;11.80;;;9.60;99.90;;;;;;5093279;28;20403;-75
2020/12/02 03:36:43;;;;;;;15.27;11.60;;;9.60;99.90;;;;;;5093208;28;20426;-75
2020/12/02 03:39:11;;;;;;;15.37;10.67;;;9.70;99.90;;;;;;5074386;28;20953;-75
2020/12/02 03:41:38;;;;;;;16.17;10.80;;;9.70;99.90;;;;;;5092892;28;20959;-75
2020/12/02 03:44:05;;;;;;;15.23;11.70;;;9.70;99.90;;;;;;5092321;28;20400;-76
2020/12/02 03:46:31;;;;;;;14.57;11.83;;;9.70;99.90;;;;;;5092937;28;20442;-75
2020/12/02 03:48:58;;;;;;;14.90;11.90;;;9.70;99.90;;;;;;5091886;28;20435;-76
2020/12/02 03:51:23;;;;;;;17.50;11.67;;;9.70;99.90;;;;;;5092640;28;20418;-75
2020/12/02 03:53:49;;;;;;;19.53;12.17;;;9.70;99.90;;;;;;5092297;28;20418;-76
2020/12/02 03:56:19;;;;;;;16.03;11.50;;;9.70;99.90;;;;;;5092869;28;20422;-75
2020/12/02 03:58:45;;;;;;;15.57;11.87;;;9.70;99.90;;;;;;5092309;28;20591;-75
2020/12/02 04:01:12;;;;;;;19.00;12.23;;;9.70;99.90;;;;;;5091702;28;20898;-75
2020/12/02 04:03:38;;;;;;;17.73;12.33;;;9.70;99.90;;;;;;5092749;28;20897;-75
2020/12/02 04:06:05;;;;;;;15.47;11.97;;;9.70;99.90;;;;;;5092048;28;20465;-75
2020/12/02 04:08:31;;;;;;;19.10;13.13;;;9.80;99.90;;;;;;5092742;28;20411;-73
2020/12/02 04:10:57;;;;;;;16.83;11.90;;;9.80;99.90;;;;;;5091349;28;20422;-69
2020/12/02 04:13:23;;;;;;;17.83;11.90;;;9.80;99.90;;;;;;5092408;28;20172;-70
2020/12/02 04:15:49;;;;;;;18.20;11.90;;;9.80;99.90;;;;;;5091909;28;20417;-72
2020/12/02 04:18:15;;;;;;;18.27;12.63;;;9.80;99.90;;;;;;5092456;28;20179;-70
2020/12/02 04:20:41;;;;;;;19.97;13.63;;;9.70;99.90;;;;;;5092472;28;20173;-70
2020/12/02 04:23:07;;;;;;;18.83;11.57;;;9.70;99.90;;;;;;5091567;28;20414;-70
2020/12/02 04:25:32;;;;;;;18.27;12.77;;;9.70;99.90;;;;;;5092073;28;20243;-70
2020/12/02 04:27:58;;;;;;;22.40;13.60;;;9.60;99.90;;;;;;5091383;28;20172;-70
2020/12/02 04:30:24;;;;;;;18.33;12.90;;;9.60;99.90;;;;;;5092336;28;20184;-70
2020/12/02 04:32:50;;;;;;;20.90;13.00;;;9.60;99.90;;;;;;5092032;28;20177;-70
2020/12/02 04:35:17;;;;;;;19.20;13.10;;;9.50;99.90;;;;;;5091765;28;20249;-70
2020/12/02 04:37:43;;;;;;;21.73;13.30;;;9.40;99.90;;;;;;5092281;28;20834;-69
2020/12/02 04:40:19;;;;;;;21.20;14.20;;;9.30;99.90;;;;;;5091468;28;20506;-70
2020/12/02 04:42:47;;;;;;;19.37;13.40;;;9.30;99.90;;;;;;5091511;28;20401;-69
2020/12/02 04:45:15;;;;;;;20.30;12.50;;;9.30;99.90;;;;;;5091365;28;20461;-70
2020/12/02 04:47:42;;;;;;;18.80;13.60;;;9.30;99.90;;;;;;5078127;28;20426;-70
2020/12/02 04:50:14;;;;;;;24.47;14.57;;;9.30;99.90;;;;;;5072327;28;20836;-70
2020/12/02 04:52:45;;;;;;;21.43;13.90;;;9.30;99.90;;;;;;5072481;28;20491;-70
2020/12/02 04:55:11;;;;;;;26.07;13.70;;;9.30;99.90;;;;;;5053422;28;20779;-68
2020/12/02 04:57:36;;;;;;;19.10;12.70;;;9.20;99.90;;;;;;5072418;28;20416;-69
2020/12/02 05:00:31;;;;;;;22.30;15.37;;;9.30;99.90;;;;;;5053702;28;20495;-68
2020/12/02 05:03:12;;;;;;;18.90;13.40;;;9.30;99.90;;;;;;5071708;28;20181;-69
2020/12/02 05:05:38;;;;;;;22.30;14.37;;;9.20;99.90;;;;;;5072268;28;20478;-68
2020/12/02 05:08:27;;;;;;;18.90;14.03;;;9.20;99.90;;;;;;5071608;28;20455;-69
2020/12/02 05:10:55;;;;;;;24.13;14.70;;;9.20;99.90;;;;;;5071669;28;20158;-69
2020/12/02 05:13:21;;;;;;;21.50;14.40;;;9.10;99.90;;;;;;5072175;28;20878;-70
2020/12/02 05:15:47;;;;;;;20.47;14.37;;;9.20;99.90;;;;;;5072120;28;20415;-70
2020/12/02 05:18:19;;;;;;;20.83;14.37;;;9.10;99.90;;;;;;5071066;28;20951;-70
2020/12/02 05:21:01;;;;;;;24.23;15.23;;;9.10;99.90;;;;;;5072018;28;20787;-70
2020/12/02 05:23:27;;;;;;;19.57;14.03;;;9.20;99.90;;;;;;5074030;28;20899;-70
2020/12/02 05:25:54;;;;;;;20.53;13.33;;;9.10;99.90;;;;;;5075029;28;20959;-71
2020/12/02 05:28:31;;;;;;;26.07;15.23;;;9.20;99.90;;;;;;5075787;28;20438;-70
2020/12/02 05:31:12;;;;;;;20.67;14.30;;;9.10;99.90;;;;;;5075188;28;20498;-70
2020/12/02 05:33:38;;;;;;;20.80;14.87;;;9.20;99.90;;;;;;5075739;28;20443;-70
2020/12/02 05:36:18;;;;;;;21.43;14.40;;;9.20;99.90;;;;;;5075033;28;20768;-70
2020/12/02 05:38:52;;;;;;;17.73;13.50;;;9.10;99.90;;;;;;5075635;28;20418;-70
2020/12/02 05:41:18;;;;;;;18.23;14.10;;;9.10;99.90;;;;;;5075577;28;20406;-70
2020/12/02 05:44:18;;;;;;;19.77;14.67;;;9.10;99.90;;;;;;5075470;28;20897;-70
2020/12/02 05:46:49;;;;;;;19.10;14.33;;;9.10;99.90;;;;;;5036321;28;20270;-70
2020/12/02 05:49:33;;;;;;;21.93;14.17;;;9.10;99.90;;;;;;5074870;28;20403;-70
2020/12/02 05:51:59;;;;;;;20.80;14.77;;;9.10;99.90;;;;;;5074865;28;20395;-70
2020/12/02 05:54:26;;;;;;;22.80;15.77;;;9.10;99.90;;;;;;5075462;28;20898;-70
2020/12/02 05:56:53;;;;;;;19.83;14.37;;;9.10;99.90;;;;;;5075031;28;20185;-70
2020/12/02 05:59:22;;;;;;;23.30;16.50;;;9.00;99.90;;;;;;5075471;28;20407;-70
2020/12/02 06:01:48;;;;;;;25.27;15.70;;;9.10;99.90;;;;;;5075238;28;20380;-70
2020/12/02 06:04:16;;;;;;;23.57;17.37;;;9.10;99.90;;;;;;5074541;28;20652;-67
2020/12/02 06:06:53;;;;;;;28.33;16.43;;;9.00;99.90;;;;;;5075039;28;20451;-68
2020/12/02 06:09:27;;;;;;;21.80;15.30;;;8.90;99.90;;;;;;5075406;28;20426;-68
2020/12/02 06:12:02;;;;;;;24.30;16.40;;;8.90;99.90;;;;;;5075122;28;20478;-68
2020/12/02 06:14:31;;;;;;;21.30;15.10;;;8.90;99.90;;;;;;5075150;28;20725;-68
2020/12/02 06:16:59;;;;;;;21.07;15.53;;;8.90;99.90;;;;;;5074260;28;20408;-68
2020/12/02 06:19:32;;;;;;;19.73;14.30;;;9.00;99.90;;;;;;5074908;28;20412;-69
2020/12/02 06:22:01;;;;;;;19.60;14.70;;;9.00;99.90;;;;;;5074345;28;20402;-69
2020/12/02 06:24:46;;;;;;;21.97;15.63;;;9.00;99.90;;;;;;5075147;28;20814;-69
2020/12/02 06:27:15;;;;;;;20.70;14.80;;;9.00;99.90;;;;;;5052827;28;20547;-69
2020/12/02 06:29:56;;;;;;;16.50;13.10;;;8.90;99.90;;;;;;5054719;28;20432;-69
2020/12/02 06:32:25;;;;;;;14.90;13.10;;;8.90;99.90;;;;;;5064188;28;20427;-69
2020/12/02 06:35:17;;;;;;;18.07;14.50;;;8.90;99.90;;;;;;5074048;28;20917;-69
2020/12/02 06:37:43;;;;;;;16.90;12.23;;;8.90;99.90;;;;;;5074615;28;20415;-69
2020/12/02 06:40:17;;;;;;;15.60;12.47;;;8.80;99.90;;;;;;5073830;28;20840;-69
2020/12/02 06:42:44;;;;;;;15.80;12.67;;;8.80;99.90;;;;;;5074412;28;20398;-69
2020/12/02 06:45:45;;;;;;;15.67;12.83;;;8.80;99.90;;;;;;5073622;28;20486;-69
2020/12/02 06:48:31;;;;;;;13.70;11.50;;;8.50;99.90;;;;;;4991951;28;20431;-69
2020/12/02 06:50:58;;;;;;;18.50;13.63;;;8.50;99.90;;;;;;5067387;28;20957;-71
2020/12/02 06:53:25;;;;;;;20.50;14.77;;;8.30;99.90;;;;;;5074117;28;20483;-69
2020/12/02 06:55:59;;;;;;;17.63;12.87;;;8.20;99.90;;;;;;5073738;28;20421;-69
2020/12/02 06:58:25;;;;;;;21.67;15.00;;;8.20;99.90;;;;;;5074173;28;20413;-69
2020/12/02 07:00:54;;;;;;;25.63;18.27;;;8.30;99.90;;;;;;5074102;28;20872;-68
2020/12/02 07:03:32;;;;;;;18.20;13.60;;;8.40;99.90;;;;;;5073251;28;20419;-69
2020/12/02 07:06:20;;;;;;;16.33;12.47;;;8.40;99.90;;;;;;5073532;28;20439;-70
2020/12/02 07:08:49;;;;;;;15.40;12.90;;;8.30;99.90;;;;;;5073939;28;20485;-68
2020/12/02 07:11:19;;;;;;;15.87;12.67;;;8.20;99.90;;;;;;5055337;28;20752;-68
2020/12/02 07:13:48;;;;;;;17.80;12.57;;;8.20;99.90;;;;;;5073818;28;20434;-68
2020/12/02 07:16:22;;;;;;;19.27;13.13;;;8.10;99.90;;;;;;5073087;28;20440;-68
2020/12/02 07:18:55;;;;;;;21.37;12.83;;;8.10;99.90;;;;;;5073658;28;20766;-68
2020/12/02 07:21:30;;;;;;;16.97;12.30;;;8.10;99.90;;;;;;5073017;28;20403;-68
2020/12/02 07:23:59;;;;;;;19.03;13.77;;;8.20;99.90;;;;;;5073407;28;20410;-68
2020/12/02 07:26:26;;;;;;;17.23;12.50;;;8.20;99.90;;;;;;5085561;28;20476;-69
2020/12/02 07:29:03;;;;;;;24.27;14.80;;;8.10;99.90;;;;;;5093803;28;20447;-68
2020/12/02 07:31:30;;;;;;;22.50;14.00;;;8.00;99.90;;;;;;5093679;28;20435;-68
2020/12/02 07:34:19;;;;;;;21.10;14.03;;;7.70;99.90;;;;;;5093519;28;20782;-68
2020/12/02 07:36:45;;;;;;;32.57;18.63;;;7.60;99.90;;;;;;5092956;28;20424;-68
2020/12/02 07:39:13;;;;;;;22.67;14.43;;;7.60;99.90;;;;;;5093058;28;20379;-68
2020/12/02 07:42:24;;;;;;;21.17;15.40;;;7.40;99.90;;;;;;5093529;28;20257;-68
2020/12/02 07:45:04;;;;;;;23.00;15.30;;;7.50;99.90;;;;;;5093383;28;20415;-68
2020/12/02 07:47:30;;;;;;;20.30;14.17;;;7.50;99.90;;;;;;5092773;28;20491;-68
2020/12/02 07:50:04;;;;;;;18.93;13.67;;;7.40;99.90;;;;;;5093385;28;20380;-68
2020/12/02 07:52:40;;;;;;;19.30;12.30;;;7.30;99.90;;;;;;5089168;28;20457;-69
2020/12/02 07:55:13;;;;;;;19.43;12.80;;;7.40;99.90;;;;;;5092950;28;20391;-69
2020/12/02 07:57:38;;;;;;;17.00;12.93;;;7.40;99.90;;;;;;5093251;28;20796;-69
2020/12/02 08:00:17;;;;;;;17.00;13.10;;;7.50;99.90;;;;;;5092620;28;20413;-69
2020/12/02 08:02:45;;;;;;;16.90;13.23;;;7.50;99.90;;;;;;5093266;28;20166;-69
2020/12/02 08:05:47;;;;;;;15.23;11.70;;;7.40;99.90;;;;;;5092493;28;20439;-69
2020/12/02 08:08:12;;;;;;;15.00;12.67;;;7.30;99.90;;;;;;5056461;28;20433;-69
2020/12/02 08:10:38;;;;;;;17.40;12.67;;;7.50;99.90;;;;;;5093566;28;20387;-69
2020/12/02 08:13:14;;;;;;;14.80;12.57;;;7.60;99.90;;;;;;5092681;28;20166;-69
2020/12/02 08:15:51;;;;;;;17.07;13.27;;;7.80;99.90;;;;;;5093028;28;20430;-69
2020/12/02 08:18:22;;;;;;;17.60;13.67;;;7.80;99.90;;;;;;5092345;28;20420;-69
2020/12/02 08:20:49;;;;;;;18.77;13.60;;;7.90;99.90;;;;;;5092981;28;20412;-69
2020/12/02 08:23:26;;;;;;;15.87;13.80;;;7.90;99.90;;;;;;5084256;28;20409;-70
2020/12/02 08:26:03;;;;;;;16.83;12.53;;;8.00;99.90;;;;;;5075045;28;20831;-69
2020/12/02 08:28:38;;;;;;;18.60;13.53;;;8.10;99.90;;;;;;5093409;28;20900;-69
2020/12/02 08:31:14;;;;;;;19.97;13.30;;;8.10;99.90;;;;;;5092187;28;20392;-69
2020/12/02 08:33:40;;;;;;;16.33;13.03;;;8.20;99.90;;;;;;5092955;28;20401;-69
2020/12/02 08:36:08;;;;;;;18.70;13.20;;;8.30;99.90;;;;;;5092108;28;20406;-69
2020/12/02 08:38:38;;;;;;;14.77;12.67;;;8.40;99.90;;;;;;5090858;28;20571;-69
2020/12/02 08:41:14;;;;;;;16.23;12.70;;;8.40;99.90;;;;;;5089532;28;20396;-70
2020/12/02 08:43:48;;;;;;;18.80;14.00;;;8.40;99.90;;;;;;5092915;28;20492;-69
2020/12/02 08:46:20;;;;;;;19.33;14.47;;;8.40;99.90;;;;;;5092028;28;20445;-69
2020/12/02 08:48:53;;;;;;;15.47;12.93;;;8.40;99.90;;;;;;5092846;28;20387;-69
2020/12/02 08:51:21;;;;;;;17.67;13.50;;;8.40;99.90;;;;;;5092013;28;20457;-69
2020/12/02 08:53:48;;;;;;;18.80;14.93;;;8.50;99.90;;;;;;5092398;28;20986;-69
2020/12/02 08:56:40;;;;;;;22.77;16.00;;;8.50;99.90;;;;;;5077070;28;20417;-69
2020/12/02 08:59:09;;;;;;;27.27;17.13;;;8.50;99.90;;;;;;5071200;28;20425;-69
2020/12/02 09:01:35;;;;;;;22.40;15.20;;;8.50;99.90;;;;;;5076484;28;20467;-69
2020/12/02 09:04:01;;;;;;;21.50;14.93;;;8.60;99.90;;;;;;5076046;28;20399;-69
2020/12/02 09:06:27;;;;;;;21.33;15.60;;;8.60;99.90;;;;;;5075337;28;20818;-69
2020/12/02 09:08:55;;;;;;;19.60;13.90;;;8.60;99.90;;;;;;5058324;28;20386;-68
2020/12/02 09:11:23;;;;;;;21.33;15.37;;;8.70;99.90;;;;;;5079352;28;20752;-69
2020/12/02 09:13:49;;;;;;;21.37;15.53;;;8.70;99.90;;;;;;5096508;28;20421;-69
2020/12/02 09:16:23;;;;;;;23.70;16.77;;;8.80;99.90;;;;;;5095727;28;20481;-69
2020/12/02 09:18:49;;;;;;;18.33;14.70;;;8.80;99.90;;;;;;5096403;28;20429;-69
2020/12/02 09:21:15;;;;;;;26.00;15.70;;;8.90;99.90;;;;;;5095663;28;20417;-69
2020/12/02 09:23:41;;;;;;;22.60;15.47;;;8.90;99.90;;;;;;5096299;28;20403;-69
2020/12/02 09:26:07;;;;;;;22.70;16.57;;;8.90;99.90;;;;;;5095194;28;20484;-69
2020/12/02 09:28:33;;;;;;;20.13;15.07;;;9.00;99.90;;;;;;5096061;28;20216;-69
2020/12/02 09:30:58;;;;;;;23.67;17.17;;;9.00;99.90;;;;;;5095807;28;20255;-69
2020/12/02 09:33:24;;;;;;;22.30;16.03;;;9.00;99.90;;;;;;5095377;28;20729;-69
2020/12/02 09:35:50;;;;;;;20.57;16.10;;;9.00;99.90;;;;;;5095942;28;20293;-69
2020/12/02 09:38:17;;;;;;;20.00;15.20;;;9.10;99.90;;;;;;5095341;28;20309;-69
2020/12/02 09:40:43;;;;;;;21.10;15.70;;;9.10;99.90;;;;;;5095841;28;20188;-69
2020/12/02 09:44:02;;;;;;;21.03;15.23;;;9.10;99.90;;;;;;5076886;28;20770;-69
2020/12/02 09:46:32;;;;;;;20.37;14.60;;;9.10;99.90;;;;;;4993213;28;20457;-69
2020/12/02 09:48:59;;;;;;;21.13;16.93;;;9.10;99.90;;;;;;5043432;28;20749;-68
2020/12/02 09:51:28;;;;;;;22.33;15.93;;;9.10;99.90;;;;;;5095036;28;20402;-69
2020/12/02 09:53:55;;;;;;;19.80;15.27;;;9.10;99.90;;;;;;5095671;28;20413;-69
2020/12/02 09:56:21;;;;;;;19.17;15.63;;;9.10;99.90;;;;;;5095013;28;20407;-69
2020/12/02 09:58:47;;;;;;;19.77;15.97;;;9.10;99.90;;;;;;5095542;28;20761;-69
2020/12/02 10:01:23;;;;;;;19.03;15.30;;;9.10;99.90;;;;;;5094648;28;20255;-69
2020/12/02 10:04:07;;;;;;;20.47;15.53;;;9.20;99.90;;;;;;5095490;28;20491;-68
2020/12/02 10:06:49;;;;;;;20.93;14.93;;;9.20;99.90;;;;;;5076623;28;21004;-69
2020/12/02 10:09:37;;;;;;;21.97;16.07;;;9.20;99.90;;;;;;5093592;28;20402;-70
2020/12/02 10:12:05;;;;;;;21.63;16.67;;;9.30;99.90;;;;;;5095284;28;20459;-70
2020/12/02 10:14:53;;;;;;;20.17;16.10;;;9.20;99.90;;;;;;5094511;28;20425;-70
2020/12/02 10:17:38;;;;;;;20.00;15.90;;;9.30;99.90;;;;;;5093280;28;20405;-70
2020/12/02 10:20:18;;;;;;;19.10;15.37;;;9.30;99.90;;;;;;5095102;28;20419;-68
2020/12/02 10:23:13;;;;;;;20.80;15.40;;;9.30;99.90;;;;;;5094541;28;20402;-69
2020/12/02 10:25:50;;;;;;;19.90;15.70;;;9.30;99.90;;;;;;5093061;28;20476;-68
2020/12/02 10:28:26;;;;;;;20.80;15.50;;;9.30;99.90;;;;;;5092903;28;20406;-69
2020/12/02 10:31:10;;;;;;;17.90;15.00;;;9.20;99.90;;;;;;5092813;28;20411;-68
2020/12/02 10:33:42;;;;;;;20.53;14.77;;;9.20;99.90;;;;;;5091598;28;20771;-68
2020/12/02 10:36:08;;;;;;;21.17;14.63;;;9.30;99.90;;;;;;5089658;28;20422;-69
2020/12/02 10:39:06;;;;;;;19.87;15.57;;;9.20;99.90;;;;;;5093034;28;20959;-68
2020/12/02 10:41:48;;;;;;;19.07;15.00;;;9.30;99.90;;;;;;5045987;28;20427;-68
2020/12/02 10:44:39;;;;;;;21.47;15.90;;;9.30;99.90;;;;;;5093304;28;20433;-69
2020/12/02 10:47:24;;;;;;;21.20;15.43;;;9.40;99.90;;;;;;5094567;28;20438;-68
2020/12/02 10:49:49;;;;;;;18.80;14.10;;;9.40;99.90;;;;;;5094480;28;20428;-67
2020/12/02 10:52:18;;;;;;;21.27;15.30;;;9.40;99.90;;;;;;5075203;28;20402;-67
2020/12/02 10:54:48;;;;;;;19.57;14.40;;;9.40;99.90;;;;;;5093795;28;20180;-68
2020/12/02 10:57:19;;;;;;;19.90;14.40;;;9.40;99.90;;;;;;5092957;28;20803;-67
2020/12/02 10:59:50;;;;;;;17.27;13.70;;;9.40;99.90;;;;;;5094309;28;20886;-67
2020/12/02 11:02:23;;;;;;;20.60;14.17;;;9.40;99.90;;;;;;5093625;28;20394;-67
2020/12/02 11:04:49;;;;;;;19.00;14.63;;;9.50;99.90;;;;;;5094160;28;20398;-67
2020/12/02 11:08:02;;;;;;;21.40;15.97;;;9.40;99.90;;;;;;5093575;28;20414;-67
2020/12/02 11:10:47;;;;;;;18.80;14.30;;;9.50;99.90;;;;;;5063067;28;20477;-67
2020/12/02 11:13:44;;;;;;;17.80;13.33;;;9.50;99.90;;;;;;5093355;28;20399;-67
2020/12/02 11:16:21;;;;;;;15.90;13.17;;;9.50;99.90;;;;;;5093803;28;20403;-67
2020/12/02 11:18:52;;;;;;;17.17;14.03;;;9.50;99.90;;;;;;5094059;28;20748;-67
2020/12/02 11:21:34;;;;;;;16.43;13.10;;;9.60;99.90;;;;;;5093341;28;20395;-67
2020/12/02 11:24:19;;;;;;;14.83;13.03;;;9.60;99.90;;;;;;5093735;28;20523;-67
2020/12/02 11:26:45;;;;;;;17.50;13.90;;;9.60;99.90;;;;;;5094037;28;20570;-67
2020/12/02 11:29:13;;;;;;;16.63;12.90;;;9.60;99.90;;;;;;5093848;28;20403;-67
2020/12/02 11:32:03;;;;;;;16.10;13.53;;;9.60;99.90;;;;;;5093761;28;21008;-67
2020/12/02 11:35:14;;;;;;;14.77;12.63;;;9.60;99.90;;;;;;5075055;28;20850;-67
2020/12/02 11:37:59;;;;;;;15.10;12.37;;;9.70;99.90;;;;;;5054792;28;20452;-67
2020/12/02 11:40:48;;;;;;;14.33;11.77;;;9.60;99.90;;;;;;5092956;28;20415;-67
2020/12/02 11:43:26;;;;;;;16.53;12.93;;;9.70;99.90;;;;;;5092971;28;20790;-67
2020/12/02 11:45:53;;;;;;;18.80;12.97;;;9.70;99.90;;;;;;5093187;28;20807;-67
2020/12/02 11:48:40;;;;;;;17.77;14.40;;;9.70;99.90;;;;;;5092150;28;20438;-67
2020/12/02 11:51:27;;;;;;;16.27;13.60;;;9.70;99.90;;;;;;5093312;28;20403;-67
2020/12/02 11:54:05;;;;;;;18.63;12.37;;;9.70;99.90;;;;;;5093343;28;20418;-67
2020/12/02 11:56:37;;;;;;;15.23;12.40;;;9.70;99.90;;;;;;5092518;28;20404;-67
2020/12/02 11:59:05;;;;;;;14.10;11.00;;;9.60;99.90;;;;;;5093268;28;20400;-67
2020/12/02 12:01:53;;;;;;;16.47;12.80;;;9.60;99.90;;;;;;5092609;28;20411;-67
2020/12/02 12:04:22;;;;;;;13.73;12.30;;;9.60;99.90;;;;;;5092556;28;20745;-67
2020/12/02 12:06:53;;;;;;;14.07;12.17;;;9.60;99.90;;;;;;5074953;28;20470;-67
2020/12/02 12:09:46;;;;;;;13.53;12.13;;;9.60;99.90;;;;;;5092612;28;20405;-67
2020/12/02 12:12:30;;;;;;;10.10;9.10;;;9.60;99.90;;;;;;5082092;28;20498;-67
2020/12/02 12:15:20;;;;;;;8.00;7.30;;;9.50;99.70;;;;;;5093037;28;20407;-67
2020/12/02 12:17:48;;;;;;;9.33;8.43;;;9.50;99.70;;;;;;5093103;28;20397;-67
2020/12/02 12:20:44;;;;;;;8.13;7.43;;;9.50;99.70;;;;;;5092596;28;20403;-67
2020/12/02 12:23:33;;;;;;;8.57;7.90;;;9.50;99.70;;;;;;5086399;28;20411;-67
2020/12/02 12:25:58;;;;;;;8.43;7.80;;;9.50;99.40;;;;;;5091515;28;20482;-67
2020/12/02 12:28:29;;;;;;;8.10;7.47;;;9.50;99.30;;;;;;5092170;28;20846;-67
2020/12/02 12:31:24;;;;;;;8.70;7.90;;;9.50;99.30;;;;;;5092877;28;20163;-67
2020/12/02 12:34:28;;;;;;;6.10;5.70;;;9.50;99.30;;;;;;5078698;28;20426;-67
2020/12/02 12:37:00;;;;;;;7.10;6.40;;;9.40;99.20;;;;;;5092750;28;20407;-67
2020/12/02 12:39:41;;;;;;;7.37;6.67;;;9.40;99.50;;;;;;5092470;28;20734;-67
2020/12/02 12:42:11;;;;;;;7.50;6.80;;;9.40;99.80;;;;;;5092506;28;20389;-67
2020/12/02 12:44:39;;;;;;;7.40;6.77;;;9.40;99.90;;;;;;5092087;28;20464;-67
2020/12/02 12:47:33;;;;;;;7.50;6.80;;;9.40;99.90;;;;;;5092437;28;20562;-67
2020/12/02 12:50:01;;;;;;;7.63;6.93;;;9.40;99.90;;;;;;5092539;28;20756;-67
2020/12/02 12:52:34;;;;;;;8.10;7.30;;;9.30;99.90;;;;;;5092021;28;20757;-67
2020/12/02 12:55:00;;;;;;;8.30;7.43;;;9.30;99.90;;;;;;5092339;28;20409;-67
2020/12/02 12:57:28;;;;;;;6.93;6.33;;;9.30;99.90;;;;;;5091939;28;20760;-67
2020/12/02 13:00:01;;;;;;;6.87;6.13;;;9.30;99.90;;;;;;5092828;28;20413;-67
2020/12/02 13:02:31;;;;;;;7.33;6.63;;;9.30;99.90;;;;;;5092029;28;20417;-67
2020/12/02 13:04:57;;;;;;;7.77;6.97;;;9.30;99.90;;;;;;5092518;28;20384;-67
2020/12/02 13:07:32;;;;;;;7.10;6.50;;;9.20;99.90;;;;;;5091874;28;20452;-67